createdAt,value
2022-08-24T00:01:14.765Z,74.96
2022-08-24T00:05:19.056Z,74.95
2022-08-24T00:09:22.453Z,74.96
2022-08-24T00:13:29.430Z,75.04
2022-08-24T00:17:36.147Z,75.06
2022-08-24T00:21:40.074Z,75.33
2022-08-24T00:25:43.202Z,75.54
2022-08-24T00:29:48.193Z,75.55
2022-08-24T00:33:52.029Z,75.69
2022-08-24T00:37:56.455Z,75.40
2022-08-24T00:42:01.013Z,75.31
2022-08-24T00:46:16.416Z,75.44
2022-08-24T00:50:24.679Z,75.23
2022-08-24T00:54:30.963Z,75.18
2022-08-24T00:58:39.582Z,75.44
2022-08-24T01:03:04.755Z,75.47
2022-08-24T01:07:08.682Z,75.35
2022-08-24T01:11:15.385Z,75.10
2022-08-24T01:15:20.975Z,75.44
2022-08-24T01:19:33.997Z,75.50
2022-08-24T01:23:42.078Z,75.26
2022-08-24T01:27:46.664Z,75.26
2022-08-24T01:31:50.777Z,75.34
2022-08-24T01:35:59.956Z,75.43
2022-08-24T01:40:08.506Z,75.04
2022-08-24T01:44:12.788Z,74.73
2022-08-24T01:48:22.679Z,74.96
2022-08-24T01:52:43.444Z,74.96
2022-08-24T01:56:53.673Z,75.09
2022-08-24T02:00:57.740Z,75.47
2022-08-24T02:05:01.637Z,75.74
2022-08-24T02:09:06.228Z,75.67
2022-08-24T02:13:11.024Z,75.82
2022-08-24T02:17:14.829Z,75.53
2022-08-24T02:21:18.759Z,75.49
2022-08-24T02:25:22.467Z,75.62
2022-08-24T02:29:27.963Z,75.71
2022-08-24T02:33:31.631Z,75.90
2022-08-24T02:37:34.957Z,75.94
2022-08-24T02:41:46.790Z,76.45
2022-08-24T02:45:52.322Z,76.38
2022-08-24T02:49:55.557Z,76.62
2022-08-24T02:54:00.138Z,76.68
2022-08-24T02:58:04.001Z,76.69
2022-08-24T03:02:09.088Z,76.90
2022-08-24T03:06:12.806Z,76.74
2022-08-24T03:10:17.361Z,76.63
2022-08-24T03:14:21.248Z,76.41
2022-08-24T03:18:27.922Z,76.58
2022-08-24T03:22:31.049Z,76.44
2022-08-24T03:26:34.798Z,76.55
2022-08-24T03:30:39.961Z,76.78
2022-08-24T03:34:47.109Z,76.31
2022-08-24T03:38:50.725Z,76.37
2022-08-24T03:42:55.509Z,76.30
2022-08-24T03:47:00.090Z,76.47
2022-08-24T03:51:05.332Z,76.36
2022-08-24T03:55:10.738Z,76.37
2022-08-24T03:59:17.727Z,76.52
2022-08-24T04:03:23.444Z,76.22
2022-08-24T04:07:30.320Z,76.22
2022-08-24T04:11:39.460Z,76.25
2022-08-24T04:15:44.977Z,76.36
2022-08-24T04:19:59.100Z,76.13
2022-08-24T04:24:04.890Z,75.94
2022-08-24T04:28:08.495Z,76.16
2022-08-24T04:32:12.156Z,76.22
2022-08-24T04:36:15.678Z,76.19
2022-08-24T04:40:20.958Z,76.12
2022-08-24T04:44:24.062Z,76.15
2022-08-24T04:48:27.612Z,76.20
2022-08-24T04:52:31.235Z,76.15
2022-08-24T04:56:36.765Z,75.88
2022-08-24T05:00:40.691Z,75.87
2022-08-24T05:04:44.491Z,75.95
2022-08-24T05:08:48.707Z,75.79
2022-08-24T05:12:53.716Z,75.89
2022-08-24T05:16:57.262Z,76.29
2022-08-24T05:21:00.836Z,75.97
2022-08-24T05:25:04.550Z,75.94
2022-08-24T05:29:09.059Z,75.18
2022-08-24T05:33:13.440Z,74.89
2022-08-24T05:37:16.889Z,74.36
2022-08-24T05:41:21.617Z,74.54
2022-08-24T05:45:26.139Z,75.12
2022-08-24T05:49:30.035Z,74.85
2022-08-24T05:53:34.398Z,74.78
2022-08-24T05:57:38.286Z,75.01
2022-08-24T06:01:45.584Z,73.42
2022-08-24T06:05:49.395Z,73.47
2022-08-24T06:09:54.210Z,72.86
2022-08-24T06:14:01.838Z,73.33
2022-08-24T06:18:07.621Z,72.98
2022-08-24T06:22:12.192Z,70.90
2022-08-24T06:26:34.018Z,70.77
2022-08-24T06:30:37.719Z,69.78
2022-08-24T06:34:42.778Z,69.17
2022-08-24T06:38:46.865Z,68.36
2022-08-24T06:42:50.129Z,67.41
2022-08-24T06:46:53.882Z,67.33
2022-08-24T06:51:00.138Z,69.15
2022-08-24T06:55:03.836Z,68.68
2022-08-24T06:59:08.935Z,69.25
2022-08-24T07:03:12.688Z,67.80
2022-08-24T07:07:18.349Z,67.63
2022-08-24T07:11:22.580Z,68.29
2022-08-24T07:15:26.740Z,66.71
2022-08-24T07:19:30.947Z,66.88
2022-08-24T07:23:41.937Z,67.09
2022-08-24T07:27:45.934Z,66.15
2022-08-24T07:31:50.105Z,67.19
2022-08-24T07:35:56.257Z,66.52
2022-08-24T07:40:01.585Z,63.24
2022-08-24T07:44:05.161Z,63.03
2022-08-24T07:48:10.592Z,61.71
2022-08-24T07:52:17.403Z,57.84
2022-08-24T07:56:22.824Z,59.59
2022-08-24T08:00:27.649Z,57.18
2022-08-24T08:04:32.730Z,54.90
2022-08-24T08:08:39.513Z,54.83
2022-08-24T08:12:44.207Z,52.88
2022-08-24T08:16:48.030Z,52.71
2022-08-24T08:20:51.867Z,54.30
2022-08-24T08:24:54.436Z,50.91
2022-08-24T08:28:58.921Z,52.76
2022-08-24T08:33:03.342Z,52.50
2022-08-24T08:37:07.949Z,50.00
2022-08-24T08:41:43.027Z,54.82
2022-08-24T08:46:09.219Z,52.63
2022-08-24T08:50:18.517Z,51.43
2022-08-24T08:54:34.112Z,53.11
2022-08-24T08:58:59.417Z,51.35
2022-08-24T09:03:18.920Z,51.58
2022-08-24T09:07:32.763Z,49.39
2022-08-24T09:11:50.478Z,49.66
2022-08-24T09:16:10.620Z,47.40
2022-08-24T09:20:26.867Z,48.83
2022-08-24T09:24:53.267Z,49.64
2022-08-24T09:29:11.306Z,51.31
2022-08-24T09:33:22.398Z,50.46
2022-08-24T09:37:55.756Z,53.64
2022-08-24T09:42:44.005Z,53.88
2022-08-24T09:47:23.652Z,53.24
2022-08-24T09:52:03.399Z,52.22
2022-08-24T09:56:16.258Z,46.05
2022-08-24T10:00:26.050Z,48.57
2022-08-24T10:04:38.663Z,49.60
2022-08-24T10:08:56.694Z,47.84
2022-08-24T10:13:15.462Z,47.40
2022-08-24T10:17:23.601Z,46.19
2022-08-24T10:21:42.095Z,46.57
2022-08-24T10:25:57.767Z,44.96
2022-08-24T10:30:27.826Z,45.53
2022-08-24T10:34:49.101Z,44.32
2022-08-24T10:39:19.285Z,44.88
2022-08-24T10:43:48.980Z,44.86
2022-08-24T10:48:18.458Z,44.75
2022-08-24T10:53:18.893Z,46.27
2022-08-24T10:57:32.482Z,43.20
2022-08-24T11:01:38.114Z,39.14
2022-08-24T11:05:49.714Z,43.02
2022-08-24T11:09:56.434Z,41.57
2022-08-24T11:14:05.033Z,40.47
2022-08-24T11:18:12.860Z,37.21
2022-08-24T11:22:41.614Z,40.39
2022-08-24T11:30:49.836Z,37.88
2022-08-24T11:34:53.000Z,37.00
2022-08-24T11:43:36.073Z,40.51
2022-08-24T11:48:00.254Z,42.06
2022-08-24T11:52:13.061Z,42.21
2022-08-24T11:56:25.522Z,40.89
2022-08-24T12:00:46.023Z,41.70
2022-08-24T12:04:59.490Z,41.20
2022-08-24T12:09:13.337Z,40.24
2022-08-24T12:13:31.950Z,42.32
2022-08-24T12:17:42.219Z,41.99
2022-08-24T12:21:51.098Z,40.54
2022-08-24T12:26:04.577Z,40.33
2022-08-24T12:30:14.381Z,41.40
2022-08-24T12:34:27.684Z,41.99
2022-08-24T12:38:36.036Z,40.11
2022-08-24T12:42:51.793Z,41.08
2022-08-24T12:46:57.210Z,39.90
2022-08-24T12:51:18.969Z,40.51
2022-08-24T12:55:52.618Z,42.15
2022-08-24T12:59:58.299Z,41.95
2022-08-24T13:04:32.521Z,43.58
2022-08-24T13:08:41.268Z,41.39
2022-08-24T13:13:14.717Z,43.02
2022-08-24T13:17:20.545Z,41.86
2022-08-24T13:21:45.220Z,43.78
2022-08-24T13:25:58.274Z,44.54
2022-08-24T13:30:09.165Z,42.68
2022-08-24T13:34:40.659Z,44.71
2022-08-24T13:39:00.050Z,42.21
2022-08-24T13:43:17.817Z,44.05
2022-08-24T13:47:26.435Z,43.01
2022-08-24T13:51:43.916Z,43.04
2022-08-24T13:55:52.692Z,42.76
2022-08-24T14:00:32.850Z,44.64
2022-08-24T14:04:47.799Z,42.52
2022-08-24T14:09:01.178Z,42.11
2022-08-24T14:13:16.606Z,42.00
2022-08-24T14:17:53.824Z,42.88
2022-08-24T14:22:08.031Z,43.43
2022-08-24T14:26:52.754Z,44.08
2022-08-24T14:31:21.901Z,44.00
2022-08-24T14:35:39.871Z,44.26
2022-08-24T14:39:53.787Z,41.41
2022-08-24T14:44:47.852Z,43.31
2022-08-24T14:49:04.407Z,41.36
2022-08-24T14:53:34.662Z,42.20
2022-08-24T14:58:03.108Z,41.61
2022-08-24T15:02:39.414Z,42.38
2022-08-24T15:06:48.390Z,41.25
2022-08-24T15:10:59.370Z,41.41
2022-08-24T15:15:11.017Z,40.06
2022-08-24T15:19:27.466Z,40.29
2022-08-24T15:23:53.454Z,40.48
2022-08-24T15:28:01.472Z,39.64
2022-08-24T15:32:09.144Z,39.84
2022-08-24T15:36:16.053Z,39.51
2022-08-24T15:40:27.436Z,40.26
2022-08-24T15:44:33.721Z,41.43
2022-08-24T15:48:38.102Z,41.83
2022-08-24T15:52:46.368Z,42.77
2022-08-24T15:56:52.044Z,43.12
2022-08-24T16:01:16.074Z,45.35
2022-08-24T16:05:21.979Z,44.87
2022-08-24T16:09:38.210Z,45.23
2022-08-24T16:13:44.606Z,45.24
2022-08-24T16:17:51.827Z,44.38
2022-08-24T16:22:01.081Z,44.99
2022-08-24T16:26:33.389Z,45.84
2022-08-24T16:30:49.364Z,44.81
2022-08-24T16:34:58.163Z,44.28
2022-08-24T16:39:01.561Z,44.19
2022-08-24T16:43:05.410Z,44.42
2022-08-24T16:47:09.166Z,44.89
2022-08-24T16:51:14.217Z,45.32
2022-08-24T16:55:17.562Z,45.01
2022-08-24T16:59:26.996Z,44.96
2022-08-24T17:03:31.078Z,46.01
2022-08-24T17:07:36.176Z,46.48
2022-08-24T17:11:39.269Z,46.46
2022-08-24T17:15:43.029Z,47.39
2022-08-24T17:19:47.652Z,47.50
2022-08-24T17:23:53.000Z,47.92
2022-08-24T17:32:00.968Z,49.46
2022-08-24T17:36:07.554Z,50.37
2022-08-24T17:40:23.913Z,50.36
2022-08-24T17:44:30.868Z,51.58
2022-08-24T17:48:34.909Z,52.26
2022-08-24T17:52:38.925Z,52.85
2022-08-24T17:56:45.739Z,53.07
2022-08-24T18:00:49.264Z,54.17
2022-08-24T18:04:52.894Z,55.05
2022-08-24T18:08:58.430Z,55.83
2022-08-24T18:13:04.541Z,56.34
2022-08-24T18:17:11.923Z,57.04
2022-08-24T18:21:15.543Z,57.68
2022-08-24T18:25:20.777Z,57.53
2022-08-24T18:29:25.520Z,58.72
2022-08-24T18:33:29.238Z,59.04
2022-08-24T18:37:32.484Z,59.53
2022-08-24T18:41:41.389Z,59.51
2022-08-24T18:45:46.047Z,60.24
2022-08-24T18:49:49.356Z,61.22
2022-08-24T18:53:59.219Z,61.38
2022-08-24T18:58:02.942Z,61.62
2022-08-24T19:02:29.646Z,60.83
2022-08-24T19:06:32.893Z,61.90
2022-08-24T19:10:38.671Z,62.17
2022-08-24T19:14:46.385Z,62.33
2022-08-24T19:18:52.832Z,62.21
2022-08-24T19:22:57.965Z,62.49
2022-08-24T19:27:02.444Z,62.69
2022-08-24T19:31:10.378Z,62.95
2022-08-24T19:35:16.485Z,62.85
2022-08-24T19:39:22.830Z,63.36
2022-08-24T19:43:35.707Z,63.33
2022-08-24T19:47:39.322Z,63.87
2022-08-24T19:51:44.375Z,64.29
2022-08-24T19:55:50.342Z,64.19
2022-08-24T19:59:55.062Z,64.60
2022-08-24T20:03:59.026Z,65.03
2022-08-24T20:08:04.993Z,64.73
2022-08-24T20:12:09.691Z,64.65
2022-08-24T20:16:17.062Z,64.64
2022-08-24T20:20:22.956Z,65.29
2022-08-24T20:24:27.707Z,65.65
2022-08-24T20:28:38.214Z,65.24
2022-08-24T20:32:42.295Z,65.24
2022-08-24T20:36:51.265Z,65.13
2022-08-24T20:40:56.097Z,65.48
2022-08-24T20:45:00.688Z,65.74
2022-08-24T20:49:04.539Z,65.54
2022-08-24T20:53:09.865Z,65.68
2022-08-24T21:01:44.407Z,66.07
2022-08-24T21:05:48.678Z,66.01
2022-08-24T21:09:52.405Z,67.12
2022-08-24T21:13:57.820Z,67.16
2022-08-24T21:18:02.203Z,66.77
2022-08-24T21:22:06.177Z,67.26
2022-08-24T21:26:12.065Z,68.02
2022-08-24T21:30:21.661Z,66.63
2022-08-24T21:34:43.310Z,67.00
2022-08-24T21:38:46.901Z,67.66
2022-08-24T21:42:50.938Z,67.91
2022-08-24T21:46:56.981Z,68.11
2022-08-24T21:51:00.772Z,68.67
2022-08-24T21:55:04.429Z,68.73
2022-08-24T21:59:08.514Z,68.32
2022-08-24T22:03:13.990Z,69.30
2022-08-24T22:07:17.361Z,69.44
2022-08-24T22:11:25.123Z,69.83
2022-08-24T22:15:28.737Z,69.61
2022-08-24T22:19:33.792Z,69.79
2022-08-24T22:23:39.065Z,70.00
2022-08-24T22:27:42.963Z,69.76
2022-08-24T22:31:47.437Z,69.55
2022-08-24T22:35:52.786Z,69.33
2022-08-24T22:39:56.246Z,68.74
2022-08-24T22:44:17.463Z,68.93
2022-08-24T22:48:20.528Z,69.46
2022-08-24T22:52:25.562Z,70.03
2022-08-24T22:56:31.023Z,69.87
2022-08-24T23:00:36.066Z,70.32
2022-08-24T23:04:41.470Z,70.50
2022-08-24T23:08:46.675Z,70.69
2022-08-24T23:12:50.326Z,72.18
2022-08-24T23:16:54.106Z,71.90
2022-08-24T23:20:56.978Z,71.97
2022-08-24T23:25:01.922Z,71.60
2022-08-24T23:29:05.705Z,71.69
2022-08-24T23:33:09.879Z,71.58
2022-08-24T23:37:13.620Z,72.67
2022-08-24T23:41:21.123Z,72.39
2022-08-24T23:45:28.353Z,73.10
2022-08-24T23:49:34.371Z,72.61
2022-08-24T23:53:38.772Z,71.87
2022-08-24T23:57:48.147Z,72.37
